sensor_id;sensor_type;location;lat;lon;timestamp;pressure;altitude;pressure_sealevel;temperature;humidity
63343;BME280;49465;57.664;39.686;2023-05-23T00:01:41;101096.41;;;17.05;49.80
63343;BME280;49465;57.664;39.686;2023-05-23T00:04:13;101094.84;;;17.13;49.88
63343;BME280;49465;57.664;39.686;2023-05-23T00:06:43;101097.63;;;17.00;49.73
63343;BME280;49465;57.664;39.686;2023-05-23T00:09:15;101102.22;;;17.10;49.36
63343;BME280;49465;57.664;39.686;2023-05-23T00:11:42;101094.75;;;16.92;49.43
63343;BME280;49465;57.664;39.686;2023-05-23T00:14:12;101100.75;;;16.94;49.88
63343;BME280;49465;57.664;39.686;2023-05-23T00:16:44;101100.03;;;17.04;50.38
63343;BME280;49465;57.664;39.686;2023-05-23T00:19:15;101106.41;;;17.01;50.11
63343;BME280;49465;57.664;39.686;2023-05-23T00:21:47;101106.53;;;16.99;50.16
63343;BME280;49465;57.664;39.686;2023-05-23T00:24:13;101094.94;;;16.78;49.79
63343;BME280;49465;57.664;39.686;2023-05-23T00:26:44;101103.00;;;16.76;50.22
63343;BME280;49465;57.664;39.686;2023-05-23T00:29:11;101100.59;;;16.73;49.70
63343;BME280;49465;57.664;39.686;2023-05-23T00:31:49;101107.94;;;16.81;50.02
63343;BME280;49465;57.664;39.686;2023-05-23T00:34:18;101109.97;;;16.66;50.00
63343;BME280;49465;57.664;39.686;2023-05-23T00:36:46;101104.06;;;16.63;50.49
63343;BME280;49465;57.664;39.686;2023-05-23T00:39:17;101108.66;;;16.60;50.31
63343;BME280;49465;57.664;39.686;2023-05-23T00:41:50;101101.66;;;16.59;50.60
63343;BME280;49465;57.664;39.686;2023-05-23T00:44:20;101106.22;;;16.57;50.14
63343;BME280;49465;57.664;39.686;2023-05-23T00:46:52;101115.88;;;16.58;50.63
63343;BME280;49465;57.664;39.686;2023-05-23T00:49:23;101112.94;;;16.50;50.70
63343;BME280;49465;57.664;39.686;2023-05-23T00:51:55;101121.38;;;16.55;50.53
63343;BME280;49465;57.664;39.686;2023-05-23T00:54:28;101116.34;;;16.64;50.02
63343;BME280;49465;57.664;39.686;2023-05-23T00:56:56;101109.31;;;16.40;50.55
63343;BME280;49465;57.664;39.686;2023-05-23T00:59:25;101113.66;;;16.41;50.56
63343;BME280;49465;57.664;39.686;2023-05-23T01:01:53;101108.84;;;16.35;51.09
63343;BME280;49465;57.664;39.686;2023-05-23T01:04:30;101113.22;;;16.58;50.26
63343;BME280;49465;57.664;39.686;2023-05-23T01:06:59;101102.19;;;16.29;50.69
63343;BME280;49465;57.664;39.686;2023-05-23T01:09:29;101106.66;;;16.40;50.94
63343;BME280;49465;57.664;39.686;2023-05-23T01:12:33;101098.31;;;16.22;50.94
63343;BME280;49465;57.664;39.686;2023-05-23T01:15:12;101108.41;;;16.64;49.51
63343;BME280;49465;57.664;39.686;2023-05-23T01:18:23;101106.47;;;16.66;49.49
63343;BME280;49465;57.664;39.686;2023-05-23T01:20:58;101108.84;;;16.35;50.43
63343;BME280;49465;57.664;39.686;2023-05-23T01:26:58;101106.41;;;16.32;50.90
63343;BME280;49465;57.664;39.686;2023-05-23T01:29:33;101105.00;;;16.39;50.66
63343;BME280;49465;57.664;39.686;2023-05-23T01:32:01;101108.91;;;16.22;50.74
63343;BME280;49465;57.664;39.686;2023-05-23T01:34:33;101111.66;;;16.20;51.02
63343;BME280;49465;57.664;39.686;2023-05-23T01:37:00;101108.28;;;16.18;50.60
63343;BME280;49465;57.664;39.686;2023-05-23T01:39:29;101100.59;;;16.27;50.90
63343;BME280;49465;57.664;39.686;2023-05-23T01:42:04;101113.41;;;16.44;50.50
63343;BME280;49465;57.664;39.686;2023-05-23T01:44:43;101100.78;;;16.48;50.60
63343;BME280;49465;57.664;39.686;2023-05-23T01:47:14;101096.84;;;16.53;50.79
63343;BME280;49465;57.664;39.686;2023-05-23T01:49:45;101098.84;;;16.38;50.50
63343;BME280;49465;57.664;39.686;2023-05-23T01:52:15;101099.59;;;16.52;50.85
63343;BME280;49465;57.664;39.686;2023-05-23T01:54:45;101096.84;;;16.53;51.13
63343;BME280;49465;57.664;39.686;2023-05-23T01:57:18;101092.16;;;16.57;50.57
63343;BME280;49465;57.664;39.686;2023-05-23T01:59:47;101096.69;;;16.44;50.86
63343;BME280;49465;57.664;39.686;2023-05-23T02:02:17;101095.59;;;16.46;50.39
63343;BME280;49465;57.664;39.686;2023-05-23T02:04:55;101103.84;;;16.77;49.74
63343;BME280;49465;57.664;39.686;2023-05-23T02:07:26;101102.03;;;16.66;50.36
63343;BME280;49465;57.664;39.686;2023-05-23T02:09:54;101107.34;;;16.66;50.81
63343;BME280;49465;57.664;39.686;2023-05-23T02:12:24;101109.63;;;16.71;51.39
63343;BME280;49465;57.664;39.686;2023-05-23T02:14:54;101103.94;;;16.75;51.54
63343;BME280;49465;57.664;39.686;2023-05-23T02:17:23;101104.69;;;16.77;51.63
63343;BME280;49465;57.664;39.686;2023-05-23T02:19:55;101100.84;;;16.82;51.37
63343;BME280;49465;57.664;39.686;2023-05-23T02:22:25;101096.88;;;16.87;50.84
63343;BME280;49465;57.664;39.686;2023-05-23T02:24:52;101104.56;;;16.79;50.46
63343;BME280;49465;57.664;39.686;2023-05-23T02:27:21;101100.75;;;16.83;50.28
63343;BME280;49465;57.664;39.686;2023-05-23T02:29:53;101105.94;;;17.07;50.18
63343;BME280;49465;57.664;39.686;2023-05-23T02:32:22;101107.97;;;16.92;50.43
63343;BME280;49465;57.664;39.686;2023-05-23T02:34:51;101112.81;;;17.10;50.23
63343;BME280;49465;57.664;39.686;2023-05-23T02:37:18;101116.78;;;17.04;49.86
63343;BME280;49465;57.664;39.686;2023-05-23T02:39:50;101109.66;;;17.27;49.97
63343;BME280;49465;57.664;39.686;2023-05-23T02:42:19;101115.91;;;17.15;50.56
63343;BME280;49465;57.664;39.686;2023-05-23T02:44:45;101102.31;;;17.19;50.97
63343;BME280;49465;57.664;39.686;2023-05-23T02:47:16;101108.19;;;17.34;51.33
63343;BME280;49465;57.664;39.686;2023-05-23T02:49:45;101105.78;;;17.43;51.17
63343;BME280;49465;57.664;39.686;2023-05-23T02:52:12;101106.13;;;17.38;51.16
63343;BME280;49465;57.664;39.686;2023-05-23T02:54:38;101096.84;;;17.44;50.87
63343;BME280;49465;57.664;39.686;2023-05-23T02:57:08;101103.19;;;17.64;51.43
63343;BME280;49465;57.664;39.686;2023-05-23T02:59:38;101107.97;;;17.70;51.62
63343;BME280;49465;57.664;39.686;2023-05-23T03:02:06;101094.88;;;17.68;51.25
63343;BME280;49465;57.664;39.686;2023-05-23T03:04:35;101090.72;;;17.75;51.03
63343;BME280;49465;57.664;39.686;2023-05-23T03:07:05;101092.63;;;17.96;51.44
63343;BME280;49465;57.664;39.686;2023-05-23T03:09:40;101096.19;;;18.06;51.44
63343;BME280;49465;57.664;39.686;2023-05-23T03:12:12;101086.69;;;18.25;50.78
63343;BME280;49465;57.664;39.686;2023-05-23T03:14:44;101076.75;;;18.17;50.16
63343;BME280;49465;57.664;39.686;2023-05-23T03:17:13;101076.78;;;18.27;50.58
63343;BME280;49465;57.664;39.686;2023-05-23T03:19:39;101079.50;;;18.36;50.37
63343;BME280;49465;57.664;39.686;2023-05-23T03:22:08;101076.91;;;18.46;49.23
63343;BME280;49465;57.664;39.686;2023-05-23T03:24:43;101076.88;;;18.67;49.93
63343;BME280;49465;57.664;39.686;2023-05-23T03:27:12;101075.06;;;18.68;49.73
63343;BME280;49465;57.664;39.686;2023-05-23T03:29:38;101076.09;;;18.76;49.39
63343;BME280;49465;57.664;39.686;2023-05-23T03:32:05;101077.00;;;18.87;48.57
63343;BME280;49465;57.664;39.686;2023-05-23T03:34:34;101076.94;;;19.08;48.57
63343;BME280;49465;57.664;39.686;2023-05-23T03:37:04;101079.34;;;19.21;47.48
63343;BME280;49465;57.664;39.686;2023-05-23T03:39:34;101079.91;;;19.14;48.14
63343;BME280;49465;57.664;39.686;2023-05-23T03:42:03;101080.25;;;19.41;46.94
63343;BME280;49465;57.664;39.686;2023-05-23T03:44:29;101074.38;;;19.47;46.45
63343;BME280;49465;57.664;39.686;2023-05-23T03:46:56;101071.31;;;19.61;46.84
63343;BME280;49465;57.664;39.686;2023-05-23T03:49:28;101070.94;;;19.75;46.12
63343;BME280;49465;57.664;39.686;2023-05-23T03:51:57;101069.84;;;19.88;46.18
63343;BME280;49465;57.664;39.686;2023-05-23T03:54:24;101063.50;;;19.99;45.92
63343;BME280;49465;57.664;39.686;2023-05-23T03:56:50;101064.19;;;20.10;46.15
63343;BME280;49465;57.664;39.686;2023-05-23T03:59:19;101069.22;;;20.33;45.80
63343;BME280;49465;57.664;39.686;2023-05-23T04:01:45;101065.56;;;20.34;45.39
63343;BME280;49465;57.664;39.686;2023-05-23T04:04:17;101060.06;;;20.45;45.54
63343;BME280;49465;57.664;39.686;2023-05-23T04:06:46;101062.84;;;20.53;45.36
63343;BME280;49465;57.664;39.686;2023-05-23T04:09:15;101059.63;;;20.60;45.25
63343;BME280;49465;57.664;39.686;2023-05-23T04:11:44;101063.63;;;20.73;44.78
63343;BME280;49465;57.664;39.686;2023-05-23T04:14:16;101068.28;;;20.71;45.28
63343;BME280;49465;57.664;39.686;2023-05-23T04:16:48;101075.66;;;20.87;45.41
63343;BME280;49465;57.664;39.686;2023-05-23T04:19:16;101069.06;;;20.91;45.86
63343;BME280;49465;57.664;39.686;2023-05-23T04:21:48;101065.63;;;20.99;45.70
63343;BME280;49465;57.664;39.686;2023-05-23T04:24:20;101067.00;;;21.13;45.46
63343;BME280;49465;57.664;39.686;2023-05-23T04:26:51;101055.59;;;21.11;45.42
63343;BME280;49465;57.664;39.686;2023-05-23T04:29:26;101058.06;;;21.22;46.03
63343;BME280;49465;57.664;39.686;2023-05-23T04:31:59;101053.25;;;21.08;45.44
63343;BME280;49465;57.664;39.686;2023-05-23T04:34:29;101059.28;;;21.10;45.16
63343;BME280;49465;57.664;39.686;2023-05-23T04:36:58;101047.47;;;21.12;45.04
63343;BME280;49465;57.664;39.686;2023-05-23T04:39:32;101066.16;;;21.30;44.80
63343;BME280;49465;57.664;39.686;2023-05-23T04:41:58;101075.81;;;21.13;44.67
63343;BME280;49465;57.664;39.686;2023-05-23T04:44:30;101083.06;;;21.21;44.71
63343;BME280;49465;57.664;39.686;2023-05-23T04:46:59;101076.66;;;21.14;44.71
63343;BME280;49465;57.664;39.686;2023-05-23T04:49:32;101067.63;;;21.25;44.46
63343;BME280;49465;57.664;39.686;2023-05-23T04:52:08;101066.41;;;21.37;44.43
63343;BME280;49465;57.664;39.686;2023-05-23T04:54:40;101058.13;;;21.12;44.99
63343;BME280;49465;57.664;39.686;2023-05-23T04:57:18;101070.59;;;21.40;45.37
63343;BME280;49465;57.664;39.686;2023-05-23T04:59:53;101073.84;;;21.43;46.01
63343;BME280;49465;57.664;39.686;2023-05-23T05:02:25;101062.22;;;21.35;45.87
63343;BME280;49465;57.664;39.686;2023-05-23T05:04:54;101057.25;;;21.40;46.09
63343;BME280;49465;57.664;39.686;2023-05-23T05:07:21;101061.38;;;21.34;46.30
63343;BME280;49465;57.664;39.686;2023-05-23T05:09:47;101052.06;;;21.38;46.37
63343;BME280;49465;57.664;39.686;2023-05-23T05:12:19;101062.09;;;21.54;46.15
63343;BME280;49465;57.664;39.686;2023-05-23T05:14:46;101068.91;;;21.48;45.53
63343;BME280;49465;57.664;39.686;2023-05-23T05:17:15;101070.28;;;21.52;45.09
63343;BME280;49465;57.664;39.686;2023-05-23T05:19:41;101074.31;;;21.57;45.19
63343;BME280;49465;57.664;39.686;2023-05-23T05:22:08;101070.50;;;21.59;45.13
63343;BME280;49465;57.664;39.686;2023-05-23T05:24:37;101074.47;;;21.73;44.99
63343;BME280;49465;57.664;39.686;2023-05-23T05:27:05;101064.56;;;21.65;45.32
63343;BME280;49465;57.664;39.686;2023-05-23T05:29:32;101065.25;;;21.67;45.05
63343;BME280;49465;57.664;39.686;2023-05-23T05:32:04;101064.94;;;21.70;45.56
63343;BME280;49465;57.664;39.686;2023-05-23T05:34:34;101054.63;;;21.76;45.18
63343;BME280;49465;57.664;39.686;2023-05-23T05:37:03;101071.09;;;21.89;44.89
63343;BME280;49465;57.664;39.686;2023-05-23T05:39:30;101063.88;;;21.81;44.74
63343;BME280;49465;57.664;39.686;2023-05-23T05:41:56;101062.41;;;21.87;45.02
63343;BME280;49465;57.664;39.686;2023-05-23T05:44:34;101073.50;;;22.18;44.77
63343;BME280;49465;57.664;39.686;2023-05-23T05:47:03;101069.81;;;22.11;45.43
63343;BME280;49465;57.664;39.686;2023-05-23T05:49:30;101063.94;;;22.07;44.66
63343;BME280;49465;57.664;39.686;2023-05-23T05:51:56;101062.28;;;22.15;44.94
63343;BME280;49465;57.664;39.686;2023-05-23T05:54:25;101069.16;;;22.35;44.38
63343;BME280;49465;57.664;39.686;2023-05-23T05:56:52;101075.34;;;22.36;44.46
63343;BME280;49465;57.664;39.686;2023-05-23T05:59:21;101083.28;;;22.54;44.78
63343;BME280;49465;57.664;39.686;2023-05-23T06:01:50;101075.16;;;22.63;44.62
63343;BME280;49465;57.664;39.686;2023-05-23T06:04:20;101079.38;;;22.66;44.38
63343;BME280;49465;57.664;39.686;2023-05-23T06:06:49;101084.47;;;22.85;43.27
63343;BME280;49465;57.664;39.686;2023-05-23T06:09:19;101082.13;;;22.82;43.40
63343;BME280;49465;57.664;39.686;2023-05-23T06:11:49;101077.25;;;23.04;42.48
63343;BME280;49465;57.664;39.686;2023-05-23T06:14:15;101075.41;;;23.04;42.05
63343;BME280;49465;57.664;39.686;2023-05-23T06:16:45;101068.78;;;23.25;41.40
63343;BME280;49465;57.664;39.686;2023-05-23T06:19:14;101057.22;;;23.24;41.47
63343;BME280;49465;57.664;39.686;2023-05-23T06:21:40;101054.25;;;23.36;41.33
63343;BME280;49465;57.664;39.686;2023-05-23T06:24:12;101056.78;;;23.54;41.28
63343;BME280;49465;57.664;39.686;2023-05-23T06:26:38;101054.47;;;23.59;41.57
63343;BME280;49465;57.664;39.686;2023-05-23T06:29:08;101058.66;;;23.69;40.96
63343;BME280;49465;57.664;39.686;2023-05-23T06:31:39;101057.38;;;23.90;41.11
63343;BME280;49465;57.664;39.686;2023-05-23T06:34:06;101048.97;;;23.93;40.82
63343;BME280;49465;57.664;39.686;2023-05-23T06:36:36;101055.84;;;24.12;40.38
63343;BME280;49465;57.664;39.686;2023-05-23T06:39:02;101051.31;;;24.13;40.72
63343;BME280;49465;57.664;39.686;2023-05-23T06:41:29;101044.78;;;24.23;41.42
63343;BME280;49465;57.664;39.686;2023-05-23T06:43:55;101042.91;;;24.32;41.20
63343;BME280;49465;57.664;39.686;2023-05-23T06:46:21;101040.91;;;24.42;40.58
63343;BME280;49465;57.664;39.686;2023-05-23T06:48:48;101038.88;;;24.53;40.38
63343;BME280;49465;57.664;39.686;2023-05-23T06:51:14;101048.22;;;24.65;40.67
63343;BME280;49465;57.664;39.686;2023-05-23T06:53:40;101043.97;;;24.79;39.62
63343;BME280;49465;57.664;39.686;2023-05-23T06:56:10;101045.09;;;24.93;39.50
63343;BME280;49465;57.664;39.686;2023-05-23T06:58:45;101048.31;;;25.28;39.64
63343;BME280;49465;57.664;39.686;2023-05-23T07:01:11;101044.31;;;25.15;38.96
63343;BME280;49465;57.664;39.686;2023-05-23T07:03:41;101052.63;;;25.37;39.11
63343;BME280;49465;57.664;39.686;2023-05-23T07:06:11;101034.31;;;25.40;39.11
63343;BME280;49465;57.664;39.686;2023-05-23T07:08:37;101039.63;;;25.49;40.08
63343;BME280;49465;57.664;39.686;2023-05-23T07:11:05;101048.63;;;25.56;39.95
63343;BME280;49465;57.664;39.686;2023-05-23T07:13:34;101052.44;;;25.61;38.53
63343;BME280;49465;57.664;39.686;2023-05-23T07:16:04;101033.78;;;25.68;38.87
63343;BME280;49465;57.664;39.686;2023-05-23T07:18:32;101027.50;;;25.76;38.12
63343;BME280;49465;57.664;39.686;2023-05-23T07:20:58;101008.63;;;25.84;38.61
63343;BME280;49465;57.664;39.686;2023-05-23T07:23:25;101010.59;;;25.90;39.24
63343;BME280;49465;57.664;39.686;2023-05-23T07:25:57;101016.84;;;26.06;38.84
63343;BME280;49465;57.664;39.686;2023-05-23T07:28:24;101014.16;;;26.06;38.53
63343;BME280;49465;57.664;39.686;2023-05-23T07:30:59;101018.19;;;26.39;38.38
63343;BME280;49465;57.664;39.686;2023-05-23T07:33:25;101008.53;;;26.30;37.06
63343;BME280;49465;57.664;39.686;2023-05-23T07:35:52;101021.16;;;26.44;37.37
63343;BME280;49465;57.664;39.686;2023-05-23T07:38:26;101019.31;;;26.75;37.75
63343;BME280;49465;57.664;39.686;2023-05-23T07:41:08;101012.09;;;27.12;37.64
63343;BME280;49465;57.664;39.686;2023-05-23T07:43:40;101012.75;;;26.99;37.06
63343;BME280;49465;57.664;39.686;2023-05-23T07:46:09;101011.91;;;27.13;37.51
63343;BME280;49465;57.664;39.686;2023-05-23T07:48:36;101008.34;;;27.28;38.11
63343;BME280;49465;57.664;39.686;2023-05-23T07:51:21;101016.63;;;27.48;36.66
63343;BME280;49465;57.664;39.686;2023-05-23T07:53:53;101019.44;;;27.61;37.31
63343;BME280;49465;57.664;39.686;2023-05-23T07:56:25;101021.47;;;27.80;35.45
63343;BME280;49465;57.664;39.686;2023-05-23T07:58:52;101014.84;;;27.83;36.21
63343;BME280;49465;57.664;39.686;2023-05-23T08:01:18;101022.44;;;27.94;35.99
63343;BME280;49465;57.664;39.686;2023-05-23T08:03:45;101019.22;;;28.06;36.42
63343;BME280;49465;57.664;39.686;2023-05-23T08:06:15;101015.13;;;28.16;35.23
63343;BME280;49465;57.664;39.686;2023-05-23T08:08:44;101010.25;;;28.27;35.34
63343;BME280;49465;57.664;39.686;2023-05-23T08:11:14;101003.72;;;28.49;35.62
63343;BME280;49465;57.664;39.686;2023-05-23T08:13:40;100992.34;;;28.54;37.28
63343;BME280;49465;57.664;39.686;2023-05-23T08:16:07;100992.41;;;28.67;35.46
63343;BME280;49465;57.664;39.686;2023-05-23T08:18:35;100983.34;;;28.82;34.20
63343;BME280;49465;57.664;39.686;2023-05-23T08:21:02;100973.81;;;28.99;35.27
63343;BME280;49465;57.664;39.686;2023-05-23T08:23:31;100978.63;;;29.10;34.74
63343;BME280;49465;57.664;39.686;2023-05-23T08:25:58;100977.06;;;29.23;34.33
63343;BME280;49465;57.664;39.686;2023-05-23T08:28:24;100978.69;;;29.30;33.68
63343;BME280;49465;57.664;39.686;2023-05-23T08:30:54;100971.25;;;29.39;34.88
63343;BME280;49465;57.664;39.686;2023-05-23T08:33:27;100972.91;;;29.53;34.43
63343;BME280;49465;57.664;39.686;2023-05-23T08:35:56;100967.31;;;29.55;34.90
63343;BME280;49465;57.664;39.686;2023-05-23T08:38:22;100975.41;;;29.62;34.79
63343;BME280;49465;57.664;39.686;2023-05-23T08:40:52;100986.84;;;29.77;34.83
63343;BME280;49465;57.664;39.686;2023-05-23T08:43:27;100971.03;;;29.87;34.79
63343;BME280;49465;57.664;39.686;2023-05-23T08:45:56;100967.72;;;29.99;34.35
63343;BME280;49465;57.664;39.686;2023-05-23T08:48:26;100977.47;;;30.06;33.36
63343;BME280;49465;57.664;39.686;2023-05-23T08:50:56;100980.19;;;30.78;34.78
63343;BME280;49465;57.664;39.686;2023-05-23T08:53:32;100974.91;;;30.38;32.98
63343;BME280;49465;57.664;39.686;2023-05-23T08:56:02;100966.00;;;30.31;33.87
63343;BME280;49465;57.664;39.686;2023-05-23T08:58:38;100965.72;;;30.52;32.39
63343;BME280;49465;57.664;39.686;2023-05-23T09:01:07;100964.09;;;30.45;32.98
63343;BME280;49465;57.664;39.686;2023-05-23T09:03:38;100971.72;;;30.61;33.81
63343;BME280;49465;57.664;39.686;2023-05-23T09:06:09;100969.59;;;30.70;33.62
63343;BME280;49465;57.664;39.686;2023-05-23T09:08:36;100971.47;;;30.69;33.45
63343;BME280;49465;57.664;39.686;2023-05-23T09:11:04;100971.25;;;30.78;32.77
63343;BME280;49465;57.664;39.686;2023-05-23T09:13:34;100966.38;;;30.93;32.19
63343;BME280;49465;57.664;39.686;2023-05-23T09:16:21;100977.22;;;31.25;33.67
63343;BME280;49465;57.664;39.686;2023-05-23T09:18:48;100988.81;;;31.00;33.81
63343;BME280;49465;57.664;39.686;2023-05-23T09:21:14;100982.53;;;31.06;33.10
63343;BME280;49465;57.664;39.686;2023-05-23T09:23:41;100978.75;;;31.14;32.96
63343;BME280;49465;57.664;39.686;2023-05-23T09:26:09;100985.78;;;31.22;33.18
63343;BME280;49465;57.664;39.686;2023-05-23T09:28:37;100988.66;;;31.27;32.23
63343;BME280;49465;57.664;39.686;2023-05-23T09:31:08;100986.34;;;31.30;32.01
63343;BME280;49465;57.664;39.686;2023-05-23T09:33:42;100971.53;;;31.33;31.68
63343;BME280;49465;57.664;39.686;2023-05-23T09:36:14;100965.00;;;31.47;32.64
63343;BME280;49465;57.664;39.686;2023-05-23T09:38:44;100964.03;;;31.35;31.76
63343;BME280;49465;57.664;39.686;2023-05-23T09:41:11;100946.69;;;31.36;32.45
63343;BME280;49465;57.664;39.686;2023-05-23T09:43:52;100944.25;;;31.60;32.67
63343;BME280;49465;57.664;39.686;2023-05-23T09:46:26;100936.44;;;31.45;32.34
63343;BME280;49465;57.664;39.686;2023-05-23T09:48:56;100939.28;;;31.57;32.35
63343;BME280;49465;57.664;39.686;2023-05-23T09:51:31;100953.63;;;31.64;32.15
63343;BME280;49465;57.664;39.686;2023-05-23T09:54:03;100949.06;;;31.58;31.42
63343;BME280;49465;57.664;39.686;2023-05-23T09:56:30;100951.94;;;31.63;30.59
63343;BME280;49465;57.664;39.686;2023-05-23T09:59:03;100956.03;;;31.72;30.79
63343;BME280;49465;57.664;39.686;2023-05-23T10:01:33;100953.03;;;31.80;30.71
63343;BME280;49465;57.664;39.686;2023-05-23T10:04:00;100946.28;;;31.89;30.26
63343;BME280;49465;57.664;39.686;2023-05-23T10:06:40;100946.69;;;32.11;31.85
63343;BME280;49465;57.664;39.686;2023-05-23T10:09:12;100941.25;;;32.11;31.38
63343;BME280;49465;57.664;39.686;2023-05-23T10:14:35;100929.25;;;32.38;31.38
63343;BME280;49465;57.664;39.686;2023-05-23T10:20:03;100933.19;;;32.60;30.89
63343;BME280;49465;57.664;39.686;2023-05-23T10:22:37;100928.66;;;32.54;32.27
63343;BME280;49465;57.664;39.686;2023-05-23T10:25:05;100935.94;;;32.54;30.95
63343;BME280;49465;57.664;39.686;2023-05-23T10:27:40;100926.69;;;32.61;30.10
63343;BME280;49465;57.664;39.686;2023-05-23T10:30:11;100928.03;;;32.70;30.96
63343;BME280;49465;57.664;39.686;2023-05-23T10:32:41;100927.84;;;32.84;30.33
63343;BME280;49465;57.664;39.686;2023-05-23T10:41:40;100921.84;;;33.47;30.31
63343;BME280;49465;57.664;39.686;2023-05-23T10:44:30;100923.97;;;33.45;29.75
63343;BME280;49465;57.664;39.686;2023-05-23T10:47:02;100928.19;;;33.18;28.35
63343;BME280;49465;57.664;39.686;2023-05-23T10:49:42;100925.84;;;33.33;29.46
63343;BME280;49465;57.664;39.686;2023-05-23T10:52:15;100923.16;;;33.03;28.86
63343;BME280;49465;57.664;39.686;2023-05-23T10:54:50;100919.91;;;33.13;28.22
63343;BME280;49465;57.664;39.686;2023-05-23T10:57:19;100916.78;;;32.97;28.78
63343;BME280;49465;57.664;39.686;2023-05-23T10:59:48;100919.00;;;32.88;28.34
63343;BME280;49465;57.664;39.686;2023-05-23T11:02:18;100910.63;;;32.90;27.07
63343;BME280;49465;57.664;39.686;2023-05-23T11:05:20;100915.69;;;33.17;28.58
63343;BME280;49465;57.664;39.686;2023-05-23T11:08:13;100916.38;;;33.12;29.55
63343;BME280;49465;57.664;39.686;2023-05-23T11:10:58;100908.31;;;33.05;29.24
63343;BME280;49465;57.664;39.686;2023-05-23T11:13:26;100912.44;;;32.66;27.21
63343;BME280;49465;57.664;39.686;2023-05-23T11:16:34;100910.03;;;32.88;28.25
63343;BME280;49465;57.664;39.686;2023-05-23T11:19:31;100906.75;;;32.98;28.59
63343;BME280;49465;57.664;39.686;2023-05-23T11:22:01;100902.16;;;32.56;27.47
63343;BME280;49465;57.664;39.686;2023-05-23T11:24:55;100891.63;;;32.90;28.77
63343;BME280;49465;57.664;39.686;2023-05-23T11:32:33;100882.22;;;32.62;28.73
63343;BME280;49465;57.664;39.686;2023-05-23T11:35:04;100874.22;;;32.49;28.87
63343;BME280;49465;57.664;39.686;2023-05-23T11:37:31;100872.88;;;32.40;28.81
63343;BME280;49465;57.664;39.686;2023-05-23T11:39:59;100877.13;;;32.36;28.67
63343;BME280;49465;57.664;39.686;2023-05-23T11:42:54;100874.31;;;32.61;29.63
63343;BME280;49465;57.664;39.686;2023-05-23T11:45:24;100870.44;;;32.50;28.66
63343;BME280;49465;57.664;39.686;2023-05-23T11:47:55;100863.78;;;32.34;28.84
63343;BME280;49465;57.664;39.686;2023-05-23T11:50:24;100860.72;;;32.30;28.39
63343;BME280;49465;57.664;39.686;2023-05-23T11:52:53;100868.47;;;32.27;28.64
63343;BME280;49465;57.664;39.686;2023-05-23T11:55:22;100862.69;;;32.23;27.97
63343;BME280;49465;57.664;39.686;2023-05-23T11:57:54;100860.25;;;32.34;28.64
63343;BME280;49465;57.664;39.686;2023-05-23T12:00:32;100857.09;;;32.37;28.53
63343;BME280;49465;57.664;39.686;2023-05-23T12:03:10;100857.78;;;32.44;28.86
63343;BME280;49465;57.664;39.686;2023-05-23T12:05:44;100864.75;;;32.40;28.43
63343;BME280;49465;57.664;39.686;2023-05-23T12:08:22;100857.16;;;32.30;28.63
63343;BME280;49465;57.664;39.686;2023-05-23T12:11:08;100852.97;;;32.64;29.25
63343;BME280;49465;57.664;39.686;2023-05-23T12:13:41;100849.53;;;32.39;28.67
63343;BME280;49465;57.664;39.686;2023-05-23T12:16:08;100842.16;;;32.27;28.81
63343;BME280;49465;57.664;39.686;2023-05-23T12:18:37;100849.00;;;32.30;28.36
63343;BME280;49465;57.664;39.686;2023-05-23T12:21:06;100843.38;;;32.31;29.00
63343;BME280;49465;57.664;39.686;2023-05-23T12:23:33;100834.41;;;32.31;28.18
63343;BME280;49465;57.664;39.686;2023-05-23T12:26:09;100831.84;;;32.48;28.24
63343;BME280;49465;57.664;39.686;2023-05-23T12:28:44;100824.53;;;32.37;28.52
63343;BME280;49465;57.664;39.686;2023-05-23T12:31:35;100828.56;;;32.46;28.49
63343;BME280;49465;57.664;39.686;2023-05-23T12:34:11;100823.34;;;32.14;28.27
63343;BME280;49465;57.664;39.686;2023-05-23T12:36:41;100822.69;;;32.19;27.26
63343;BME280;49465;57.664;39.686;2023-05-23T12:39:13;100823.72;;;32.18;28.10
63343;BME280;49465;57.664;39.686;2023-05-23T12:41:47;100815.38;;;32.19;27.89
63343;BME280;49465;57.664;39.686;2023-05-23T12:44:20;100816.56;;;32.23;28.35
63343;BME280;49465;57.664;39.686;2023-05-23T12:46:48;100797.66;;;32.17;28.37
63343;BME280;49465;57.664;39.686;2023-05-23T12:49:18;100816.03;;;32.15;28.10
63343;BME280;49465;57.664;39.686;2023-05-23T12:51:49;100804.19;;;32.27;28.14
63343;BME280;49465;57.664;39.686;2023-05-23T12:54:16;100797.59;;;32.23;28.66
63343;BME280;49465;57.664;39.686;2023-05-23T12:56:45;100792.28;;;32.28;28.62
63343;BME280;49465;57.664;39.686;2023-05-23T12:59:14;100793.34;;;32.27;28.50
63343;BME280;49465;57.664;39.686;2023-05-23T13:01:47;100779.41;;;32.24;27.98
63343;BME280;49465;57.664;39.686;2023-05-23T13:04:16;100778.63;;;32.05;27.72
63343;BME280;49465;57.664;39.686;2023-05-23T13:06:48;100778.28;;;32.01;27.98
63343;BME280;49465;57.664;39.686;2023-05-23T13:09:21;100789.03;;;32.08;28.73
63343;BME280;49465;57.664;39.686;2023-05-23T13:11:50;100782.69;;;31.96;28.63
63343;BME280;49465;57.664;39.686;2023-05-23T13:14:16;100778.53;;;31.93;28.38
63343;BME280;49465;57.664;39.686;2023-05-23T13:17:10;100778.53;;;31.93;28.67
63343;BME280;49465;57.664;39.686;2023-05-23T13:19:40;100773.88;;;32.00;27.50
63343;BME280;49465;57.664;39.686;2023-05-23T13:22:09;100773.38;;;31.91;27.62